Time;durP1;ratioP1;P1;durP2;ratioP2;P2;SDS_P1;SDS_P2;PMS_P1;PMS_P2;Temp;Humidity;BMP_temperature;BMP_pressure;BME280_temperature;BME280_humidity;BME280_pressure;Samples;Min_cycle;Max_cycle;Signal;HPM_P1;HPM_P2
2023/08/11 00:00:48;;;;;;;2.35;2.10;;;23.60;60.90;;;;;;4909610;28;88065;-90
2023/08/11 00:03:14;;;;;;;3.92;2.28;;;23.60;60.70;;;;;;4909376;28;87944;-93
2023/08/11 00:05:40;;;;;;;2.28;2.05;;;23.60;60.90;;;;;;4903523;28;87619;-84
2023/08/11 00:08:06;;;;;;;2.00;1.77;;;23.60;60.80;;;;;;4898660;28;89531;-88
2023/08/11 00:10:33;;;;;;;2.53;2.00;;;23.60;60.80;;;;;;4904063;28;88650;-91
2023/08/11 00:12:58;;;;;;;2.03;1.90;;;23.60;60.80;;;;;;4907453;28;88162;-85
2023/08/11 00:15:24;;;;;;;2.72;1.92;;;23.60;60.70;;;;;;4912321;28;87569;-89
2023/08/11 00:17:53;;;;;;;3.88;2.35;;;23.60;60.90;;;;;;4911973;28;87960;-92
2023/08/11 00:20:19;;;;;;;2.63;1.63;;;23.60;60.90;;;;;;4900229;28;91163;-90
2023/08/11 00:22:45;;;;;;;2.40;2.05;;;23.60;61.00;;;;;;4899923;28;87702;-93
2023/08/11 00:25:11;;;;;;;2.22;2.03;;;23.60;60.90;;;;;;4906111;28;87766;-88
2023/08/11 00:27:37;;;;;;;2.22;2.00;;;23.60;61.10;;;;;;4915372;28;87317;-93
2023/08/11 00:30:05;;;;;;;2.75;1.80;;;23.60;61.00;;;;;;4915548;28;87659;-89
2023/08/11 00:32:30;;;;;;;4.55;2.30;;;23.60;60.90;;;;;;4912880;28;87761;-94
2023/08/11 00:34:56;;;;;;;2.58;2.22;;;23.60;60.90;;;;;;4912745;28;88579;-93
2023/08/11 00:37:22;;;;;;;2.58;1.98;;;23.60;61.00;;;;;;4913009;28;87822;-95
2023/08/11 00:39:51;;;;;;;2.25;2.05;;;23.60;60.90;;;;;;4911391;28;88143;-91
2023/08/11 00:42:17;;;;;;;2.75;2.10;;;23.60;60.70;;;;;;4905250;28;87942;-92
2023/08/11 00:44:43;;;;;;;2.28;1.98;;;23.60;60.70;;;;;;4915707;28;88688;-95
2023/08/11 00:47:08;;;;;;;2.47;2.28;;;23.60;60.90;;;;;;4915004;28;86934;-86
2023/08/11 00:49:34;;;;;;;2.35;2.15;;;23.60;60.80;;;;;;4913142;28;86981;-94
2023/08/11 00:52:01;;;;;;;2.50;2.30;;;23.60;60.80;;;;;;4914690;28;87811;-91
2023/08/11 00:54:27;;;;;;;2.20;2.00;;;23.60;60.90;;;;;;4913226;28;86975;-90
2023/08/11 00:56:53;;;;;;;1.85;1.75;;;23.60;60.90;;;;;;4912917;28;88555;-90
2023/08/11 00:59:19;;;;;;;2.15;1.95;;;23.60;60.80;;;;;;4912510;28;91588;-88
2023/08/11 01:01:45;;;;;;;1.80;1.70;;;23.60;60.80;;;;;;4913372;28;88211;-92
2023/08/11 01:04:12;;;;;;;2.95;1.98;;;23.60;60.60;;;;;;4912689;28;87691;-89
2023/08/11 01:06:45;;;;;;;2.33;2.10;;;23.60;60.70;;;;;;4911988;28;87942;-86
2023/08/11 01:09:27;;;;;;;2.97;2.25;;;23.60;61.80;;;;;;4911899;28;88124;-91
2023/08/11 01:12:04;;;;;;;2.78;2.03;;;23.60;60.90;;;;;;4917771;28;90269;-87
2023/08/11 01:14:52;;;;;;;2.13;1.80;;;23.60;60.60;;;;;;4902760;28;87744;-89
2023/08/11 01:17:19;;;;;;;7.37;1.90;;;23.60;60.70;;;;;;4904047;28;86420;-90
2023/08/11 01:19:46;;;;;;;1.80;1.70;;;23.60;60.70;;;;;;4904219;28;87556;-93
2023/08/11 01:22:15;;;;;;;2.65;1.95;;;23.50;60.70;;;;;;4903844;28;88297;-89
2023/08/11 01:24:43;;;;;;;2.20;2.00;;;23.60;60.70;;;;;;4900688;28;88683;-87
2023/08/11 01:27:09;;;;;;;2.00;1.80;;;23.50;61.30;;;;;;4900456;28;87732;-84
2023/08/11 01:29:35;;;;;;;2.45;2.13;;;23.50;60.50;;;;;;4899903;28;87429;-83
2023/08/11 01:32:00;;;;;;;2.22;1.98;;;23.50;60.50;;;;;;4897143;28;87757;-85
2023/08/11 01:34:26;;;;;;;1.77;1.67;;;23.50;60.50;;;;;;4896453;28;87513;-83
2023/08/11 01:37:00;;;;;;;1.80;1.70;;;23.50;60.60;;;;;;4895945;28;87494;-84
2023/08/11 01:39:29;;;;;;;1.48;1.30;;;23.50;60.50;;;;;;4897365;28;88632;-87
2023/08/11 01:41:55;;;;;;;2.17;1.98;;;23.50;60.70;;;;;;4897011;28;88050;-83
2023/08/11 01:44:23;;;;;;;2.67;1.80;;;23.50;60.70;;;;;;4893282;28;87736;-87
2023/08/11 01:46:50;;;;;;;2.97;1.98;;;23.50;60.60;;;;;;4893785;28;87455;-89
2023/08/11 01:49:17;;;;;;;1.85;1.75;;;23.50;60.80;;;;;;4893259;28;89415;-84
2023/08/11 01:51:43;;;;;;;2.10;1.90;;;23.50;60.80;;;;;;4895702;28;88508;-87
2023/08/11 01:54:10;;;;;;;2.92;2.03;;;23.50;60.90;;;;;;4903516;28;87667;-91
2023/08/11 01:56:37;;;;;;;1.75;1.65;;;23.50;60.80;;;;;;4901989;28;87439;-91
2023/08/11 01:59:10;;;;;;;2.00;1.80;;;23.50;60.80;;;;;;4901683;28;88035;-92
2023/08/11 02:01:35;;;;;;;1.80;1.70;;;23.40;60.70;;;;;;4899813;28;88442;-87
2023/08/11 02:04:02;;;;;;;2.45;1.50;;;23.40;60.60;;;;;;4900139;28;87500;-91
2023/08/11 02:06:28;;;;;;;1.60;1.42;;;23.40;60.90;;;;;;4901610;28;86773;-88
2023/08/11 02:08:53;;;;;;;2.20;2.00;;;23.40;60.70;;;;;;4903029;28;87429;-90
2023/08/11 02:11:19;;;;;;;2.03;1.83;;;23.40;60.70;;;;;;4901416;28;87707;-88
2023/08/11 02:13:44;;;;;;;1.98;1.80;;;23.40;60.80;;;;;;4901365;28;88243;-89
2023/08/11 02:16:10;;;;;;;1.75;1.65;;;23.40;60.80;;;;;;4900784;28;87415;-89
2023/08/11 02:18:35;;;;;;;2.38;2.17;;;23.40;60.90;;;;;;4900861;28;89615;-93
2023/08/11 02:21:02;;;;;;;2.10;1.88;;;23.40;60.80;;;;;;4899995;28;89019;-90
2023/08/11 02:23:28;;;;;;;2.70;1.98;;;23.40;60.50;;;;;;4902213;28;87455;-89
2023/08/11 02:25:53;;;;;;;2.15;1.95;;;23.40;60.70;;;;;;4901402;28;86954;-85
2023/08/11 02:28:19;;;;;;;2.00;1.80;;;23.40;60.70;;;;;;4900300;28;87848;-90
2023/08/11 02:30:46;;;;;;;2.00;1.80;;;23.40;60.70;;;;;;4902288;28;87541;-86
2023/08/11 02:33:13;;;;;;;1.98;1.77;;;23.40;60.70;;;;;;4900556;28;87454;-86
2023/08/11 02:35:38;;;;;;;2.58;1.85;;;23.40;60.60;;;;;;4903131;28;86934;-91
2023/08/11 02:38:05;;;;;;;1.88;1.60;;;23.40;60.80;;;;;;4903272;28;89120;-88
2023/08/11 02:40:30;;;;;;;1.55;1.45;;;23.40;60.70;;;;;;4900926;28;89174;-89
2023/08/11 02:42:57;;;;;;;1.77;1.67;;;23.40;61.00;;;;;;4898847;28;88166;-84
2023/08/11 02:45:24;;;;;;;1.98;1.80;;;23.40;60.90;;;;;;4905651;28;87792;-92
2023/08/11 02:47:50;;;;;;;1.95;1.52;;;23.40;61.00;;;;;;4907333;28;87349;-89
2023/08/11 02:50:17;;;;;;;1.85;1.73;;;23.40;61.10;;;;;;4905987;28;88228;-91
2023/08/11 02:52:43;;;;;;;2.13;1.90;;;23.40;61.10;;;;;;4905793;28;86910;-92
2023/08/11 02:55:09;;;;;;;2.10;1.90;;;23.40;61.10;;;;;;4906556;28;86671;-87
2023/08/11 02:57:36;;;;;;;2.75;2.15;;;23.40;61.00;;;;;;4905261;28;88967;-87
2023/08/11 03:00:10;;;;;;;2.05;1.50;;;23.40;61.00;;;;;;4901869;28;90502;-92
2023/08/11 03:02:36;;;;;;;2.17;1.98;;;23.40;61.30;;;;;;4903998;28;89132;-87
2023/08/11 03:05:03;;;;;;;1.73;1.50;;;23.40;61.20;;;;;;4906557;28;87367;-88
2023/08/11 03:07:31;;;;;;;1.80;1.50;;;23.40;60.90;;;;;;4903152;28;88051;-93
2023/08/11 03:09:56;;;;;;;2.80;2.03;;;23.40;60.80;;;;;;4903616;28;87866;-91
2023/08/11 03:12:22;;;;;;;2.28;1.92;;;23.40;61.70;;;;;;4904838;28;87685;-90
2023/08/11 03:14:48;;;;;;;2.10;1.90;;;23.40;60.90;;;;;;4904819;28;87520;-92
2023/08/11 03:17:14;;;;;;;1.98;1.70;;;23.30;60.90;;;;;;4895657;28;89826;-89
2023/08/11 03:19:39;;;;;;;2.13;1.80;;;23.40;61.10;;;;;;4903369;28;87471;-92
2023/08/11 03:22:05;;;;;;;1.90;1.70;;;23.40;60.90;;;;;;4903687;28;87661;-92
2023/08/11 03:24:31;;;;;;;1.80;1.70;;;23.30;60.80;;;;;;4903097;28;88203;-93
2023/08/11 03:26:56;;;;;;;3.17;2.10;;;23.30;61.00;;;;;;4906048;28;89099;-92
2023/08/11 03:29:22;;;;;;;1.98;1.80;;;23.30;60.90;;;;;;4904836;28;88764;-88
2023/08/11 03:31:48;;;;;;;2.05;1.83;;;23.30;61.00;;;;;;4901707;28;87661;-89
2023/08/11 03:34:13;;;;;;;1.70;1.60;;;23.30;60.90;;;;;;4903930;28;88078;-86
2023/08/11 03:36:39;;;;;;;1.58;1.48;;;23.30;61.00;;;;;;4904344;28;88119;-89
2023/08/11 03:39:06;;;;;;;2.33;2.08;;;23.30;60.90;;;;;;4903285;28;89446;-87
2023/08/11 03:41:31;;;;;;;1.52;1.40;;;23.30;61.00;;;;;;4906439;28;87500;-92
2023/08/11 03:43:57;;;;;;;1.80;1.70;;;23.30;60.90;;;;;;4903751;28;86882;-91
2023/08/11 03:46:22;;;;;;;2.05;1.80;;;23.30;61.00;;;;;;4903875;28;88111;-93
2023/08/11 03:48:48;;;;;;;1.88;1.77;;;23.30;61.10;;;;;;4904260;28;87762;-91
2023/08/11 03:51:14;;;;;;;2.30;2.10;;;23.30;60.80;;;;;;4903706;28;88904;-95
2023/08/11 03:53:40;;;;;;;2.67;2.00;;;23.30;61.00;;;;;;4904801;28;87495;-90
2023/08/11 03:56:08;;;;;;;2.35;1.95;;;23.30;61.00;;;;;;4904353;28;88539;-85
2023/08/11 03:58:37;;;;;;;2.22;1.83;;;23.20;61.10;;;;;;4904739;28;87965;-90
2023/08/11 04:01:04;;;;;;;2.15;1.90;;;23.30;61.10;;;;;;4902996;28;87676;-89
2023/08/11 04:03:32;;;;;;;1.50;1.40;;;23.20;60.90;;;;;;4901904;28;87987;-89
2023/08/11 04:05:59;;;;;;;2.95;2.08;;;23.20;61.10;;;;;;4903085;28;88225;-87
2023/08/11 04:08:26;;;;;;;2.13;1.85;;;23.30;60.80;;;;;;4902371;28;87180;-87
2023/08/11 04:10:53;;;;;;;1.80;1.70;;;23.30;61.10;;;;;;4898718;28;88595;-88
2023/08/11 04:13:18;;;;;;;2.10;1.92;;;23.20;60.80;;;;;;4899007;28;88058;-85
2023/08/11 04:15:45;;;;;;;2.40;2.10;;;23.20;61.00;;;;;;4896234;28;88719;-85
2023/08/11 04:18:12;;;;;;;1.70;1.60;;;23.20;61.00;;;;;;4900054;28;88270;-83
2023/08/11 04:20:38;;;;;;;2.03;1.52;;;23.20;60.90;;;;;;4897220;28;89140;-85
2023/08/11 04:23:04;;;;;;;1.60;1.50;;;23.20;60.90;;;;;;4896080;28;89438;-90
2023/08/11 04:25:29;;;;;;;1.92;1.73;;;23.20;60.80;;;;;;4899293;28;91324;-89
2023/08/11 04:27:55;;;;;;;1.70;1.60;;;23.20;60.90;;;;;;4901685;28;87792;-92
2023/08/11 04:30:21;;;;;;;1.65;1.55;;;23.20;60.80;;;;;;4900656;28;87085;-90
2023/08/11 04:32:47;;;;;;;1.83;1.73;;;23.20;61.00;;;;;;4896219;28;89924;-83
2023/08/11 04:35:13;;;;;;;2.10;1.90;;;23.20;60.90;;;;;;4896317;28;88458;-84
2023/08/11 04:37:40;;;;;;;1.85;1.75;;;23.20;60.90;;;;;;4897608;28;87963;-87
2023/08/11 04:40:09;;;;;;;2.08;1.95;;;23.20;61.10;;;;;;4896029;28;87959;-83
2023/08/11 04:42:35;;;;;;;1.88;1.70;;;23.20;60.90;;;;;;4899279;28;87527;-85
2023/08/11 04:45:00;;;;;;;1.55;1.45;;;23.20;61.00;;;;;;4901308;28;87514;-91
2023/08/11 04:47:26;;;;;;;2.00;1.80;;;23.20;60.90;;;;;;4898702;28;87928;-86
2023/08/11 04:49:52;;;;;;;1.90;1.70;;;23.20;60.90;;;;;;4896331;28;87371;-86
2023/08/11 04:52:17;;;;;;;2.10;1.90;;;23.20;60.90;;;;;;4900384;28;87536;-88
2023/08/11 04:54:43;;;;;;;1.85;1.67;;;23.20;61.10;;;;;;4897275;28;87544;-91
2023/08/11 04:57:09;;;;;;;1.65;1.50;;;23.20;61.20;;;;;;4902283;28;88043;-83
2023/08/11 04:59:34;;;;;;;1.80;1.63;;;23.20;61.20;;;;;;4901466;28;87713;-89
2023/08/11 05:02:00;;;;;;;1.63;1.52;;;23.20;61.00;;;;;;4894799;28;89408;-84
2023/08/11 05:04:26;;;;;;;1.77;1.67;;;23.20;60.90;;;;;;4894498;28;91812;-84
2023/08/11 05:06:52;;;;;;;2.03;1.60;;;23.20;60.90;;;;;;4895575;28;88307;-88
2023/08/11 05:09:17;;;;;;;1.67;1.50;;;23.30;61.00;;;;;;4897684;28;87942;-85
2023/08/11 05:11:43;;;;;;;1.42;1.33;;;23.30;61.00;;;;;;4900997;28;87028;-88
2023/08/11 05:14:09;;;;;;;1.60;1.33;;;23.30;60.70;;;;;;4901950;28;87899;-90
2023/08/11 05:16:34;;;;;;;2.17;1.98;;;23.30;60.60;;;;;;4899164;28;87422;-85
2023/08/11 05:19:00;;;;;;;1.73;1.63;;;23.30;60.60;;;;;;4899486;28;87698;-84
2023/08/11 05:21:25;;;;;;;1.55;1.45;;;23.40;60.70;;;;;;4901429;28;87312;-85
2023/08/11 05:23:51;;;;;;;1.80;1.65;;;23.40;60.70;;;;;;4902958;28;88144;-86
2023/08/11 05:26:17;;;;;;;1.85;1.65;;;23.40;60.50;;;;;;4898061;28;87539;-83
2023/08/11 05:28:43;;;;;;;1.60;1.50;;;23.40;60.80;;;;;;4898965;28;88891;-85
2023/08/11 05:31:09;;;;;;;1.50;1.40;;;23.40;60.50;;;;;;4899629;28;88184;-84
2023/08/11 05:33:34;;;;;;;1.52;1.42;;;23.50;60.70;;;;;;4898275;28;88369;-86
2023/08/11 05:36:00;;;;;;;1.85;1.70;;;23.50;60.60;;;;;;4897939;28;88708;-89
2023/08/11 05:38:26;;;;;;;1.90;1.70;;;23.50;60.70;;;;;;4895760;28;87443;-86
2023/08/11 05:40:52;;;;;;;1.70;1.60;;;23.50;60.50;;;;;;4897540;28;87612;-90
2023/08/11 05:43:18;;;;;;;2.33;1.80;;;23.50;60.70;;;;;;4894788;28;87663;-87
2023/08/11 05:45:43;;;;;;;2.03;1.55;;;23.60;61.40;;;;;;4899495;28;89334;-91
2023/08/11 05:48:09;;;;;;;1.95;1.60;;;23.60;60.50;;;;;;4897674;28;88017;-88
2023/08/11 05:50:35;;;;;;;1.60;1.50;;;23.70;60.40;;;;;;4899492;28;87810;-92
2023/08/11 05:53:01;;;;;;;1.50;1.40;;;23.70;60.40;;;;;;4898139;28;90483;-92
2023/08/11 05:55:29;;;;;;;1.80;1.70;;;23.80;60.30;;;;;;4900660;28;87700;-94
2023/08/11 05:57:54;;;;;;;1.70;1.60;;;23.80;60.10;;;;;;4899806;28;87199;-88
2023/08/11 06:00:20;;;;;;;1.50;1.40;;;23.90;59.80;;;;;;4900072;28;87371;-94
2023/08/11 06:02:46;;;;;;;4.65;1.67;;;24.00;59.70;;;;;;4900085;28;87491;-92
2023/08/11 06:05:15;;;;;;;2.30;1.85;;;24.00;59.70;;;;;;4898159;28;87480;-89
2023/08/11 06:07:41;;;;;;;;;;;24.00;58.50;;;;;;4901620;28;87474;-87
2023/08/11 06:10:07;;;;;;;2.20;1.80;;;23.90;58.70;;;;;;4899386;28;86831;-91
2023/08/11 06:12:33;;;;;;;5.22;2.17;;;23.90;58.60;;;;;;4896990;28;90693;-90
2023/08/11 06:14:58;;;;;;;4.07;2.22;;;23.80;58.90;;;;;;4898988;28;87746;-89
2023/08/11 06:17:25;;;;;;;3.42;2.03;;;23.70;59.10;;;;;;4897066;28;88297;-90
2023/08/11 06:19:50;;;;;;;2.40;2.20;;;23.60;58.90;;;;;;4896703;28;87906;-92
2023/08/11 06:22:16;;;;;;;5.05;2.70;;;23.70;59.20;;;;;;4898364;28;87743;-90
2023/08/11 06:24:42;;;;;;;4.25;2.38;;;23.70;59.20;;;;;;4896194;28;88975;-89
2023/08/11 06:27:09;;;;;;;4.38;2.20;;;23.70;58.70;;;;;;4897423;28;88003;-88
2023/08/11 06:29:35;;;;;;;3.65;2.30;;;23.70;59.00;;;;;;4894921;28;90215;-90
2023/08/11 06:32:01;;;;;;;4.85;2.50;;;23.70;59.30;;;;;;4897715;28;88290;-92
2023/08/11 06:34:26;;;;;;;5.97;2.80;;;23.70;59.20;;;;;;4894674;28;87804;-91
2023/08/11 06:36:52;;;;;;;5.22;2.53;;;23.70;59.70;;;;;;4902925;28;87179;-88
2023/08/11 06:39:18;;;;;;;4.72;2.78;;;23.70;59.00;;;;;;4903565;28;88096;-88
2023/08/11 06:41:43;;;;;;;4.20;2.60;;;23.70;59.20;;;;;;4905670;28;89595;-89
2023/08/11 06:44:09;;;;;;;4.28;2.47;;;23.70;59.20;;;;;;4903048;28;89375;-88
2023/08/11 06:46:35;;;;;;;4.70;2.40;;;23.70;59.30;;;;;;4904722;28;87486;-91
2023/08/11 06:49:01;;;;;;;5.90;2.78;;;23.70;59.50;;;;;;4903279;28;87598;-86
2023/08/11 06:51:26;;;;;;;5.70;2.42;;;23.70;59.50;;;;;;4903845;28;88840;-88
2023/08/11 06:53:52;;;;;;;3.95;2.38;;;23.70;59.50;;;;;;4901240;28;87736;-84
2023/08/11 06:56:17;;;;;;;3.42;2.47;;;23.70;59.50;;;;;;4901335;28;87559;-93
2023/08/11 06:58:43;;;;;;;4.32;2.58;;;23.70;59.60;;;;;;4904664;28;86848;-91
2023/08/11 07:01:09;;;;;;;5.95;2.97;;;23.70;60.00;;;;;;4903271;28;88276;-88
2023/08/11 07:03:34;;;;;;;5.07;2.42;;;23.70;59.40;;;;;;4900839;28;87776;-93
2023/08/11 07:06:01;;;;;;;6.43;2.63;;;23.70;59.20;;;;;;4903484;28;87932;-90
2023/08/11 07:08:27;;;;;;;7.18;2.58;;;23.70;59.30;;;;;;4901590;28;87427;-90
2023/08/11 07:10:52;;;;;;;5.43;2.63;;;23.80;59.50;;;;;;4899153;28;87642;-90
2023/08/11 07:13:18;;;;;;;5.10;2.42;;;23.90;59.20;;;;;;4886667;28;87555;-84
2023/08/11 07:15:44;;;;;;;7.13;2.55;;;23.90;59.10;;;;;;4891348;28;87900;-91
2023/08/11 07:18:10;;;;;;;4.85;2.55;;;23.90;59.10;;;;;;4889038;28;88137;-88
2023/08/11 07:20:41;;;;;;;4.15;2.45;;;23.90;58.90;;;;;;4896950;28;89918;-90
2023/08/11 07:23:06;;;;;;;8.15;2.40;;;24.00;58.90;;;;;;4901598;28;88001;-83
2023/08/11 07:25:32;;;;;;;7.20;2.35;;;24.00;58.60;;;;;;4900426;28;87361;-88
2023/08/11 07:27:57;;;;;;;5.25;2.85;;;24.00;58.70;;;;;;4901233;28;87458;-86
2023/08/11 07:30:23;;;;;;;9.40;3.42;;;24.00;58.80;;;;;;4900853;28;90340;-92
2023/08/11 07:32:49;;;;;;;15.85;3.78;;;24.00;58.70;;;;;;4903601;28;87762;-91
2023/08/11 07:35:14;;;;;;;25.92;6.00;;;24.00;58.90;;;;;;4902268;28;88045;-91
2023/08/11 07:37:40;;;;;;;16.05;4.45;;;24.00;59.10;;;;;;4903903;28;87812;-87
2023/08/11 07:40:06;;;;;;;18.98;5.75;;;24.00;58.80;;;;;;4906163;28;88676;-90
2023/08/11 07:42:32;;;;;;;17.58;4.90;;;23.90;58.70;;;;;;4902129;28;88537;-91
2023/08/11 07:44:58;;;;;;;23.63;5.47;;;23.90;58.80;;;;;;4900431;28;87337;-87
2023/08/11 07:47:23;;;;;;;17.67;5.38;;;23.90;58.80;;;;;;4899493;28;87692;-93
2023/08/11 07:49:49;;;;;;;18.25;5.45;;;23.80;58.90;;;;;;4903403;28;89131;-88
2023/08/11 07:52:15;;;;;;;20.48;5.78;;;23.80;58.90;;;;;;4904222;28;87504;-83
2023/08/11 07:54:40;;;;;;;28.10;5.95;;;23.80;59.30;;;;;;4899479;28;88515;-87
2023/08/11 07:57:06;;;;;;;19.08;5.35;;;23.80;59.30;;;;;;4901308;28;87352;-89
2023/08/11 07:59:32;;;;;;;16.63;5.32;;;23.80;59.20;;;;;;4905824;28;87531;-91
2023/08/11 08:01:59;;;;;;;18.33;5.15;;;23.90;59.30;;;;;;4905901;28;87304;-90
2023/08/11 08:04:24;;;;;;;18.75;6.03;;;23.90;59.10;;;;;;4901339;28;87822;-87
2023/08/11 08:06:50;;;;;;;14.18;4.88;;;23.90;59.20;;;;;;4904450;28;87748;-89
2023/08/11 08:09:16;;;;;;;14.02;5.28;;;23.90;58.90;;;;;;4901572;28;88529;-87
2023/08/11 08:11:43;;;;;;;18.77;5.50;;;23.90;59.10;;;;;;4901389;28;86510;-90
2023/08/11 08:14:10;;;;;;;15.85;4.72;;;23.90;59.20;;;;;;4904643;28;87707;-87
2023/08/11 08:16:44;;;;;;;16.75;5.10;;;23.90;59.30;;;;;;4901831;28;87697;-91
2023/08/11 08:19:11;;;;;;;13.88;4.60;;;23.90;59.40;;;;;;4901388;28;88795;-88
2023/08/11 08:21:37;;;;;;;14.13;4.70;;;23.90;59.30;;;;;;4901183;28;91716;-90
2023/08/11 08:24:04;;;;;;;13.85;4.15;;;24.00;59.30;;;;;;4905061;28;87403;-88
2023/08/11 08:26:31;;;;;;;9.45;3.95;;;24.00;59.30;;;;;;4905367;28;87601;-92
2023/08/11 08:28:57;;;;;;;7.05;3.85;;;23.90;59.40;;;;;;4904458;28;87567;-86
2023/08/11 08:31:22;;;;;;;8.57;4.05;;;24.00;59.70;;;;;;4901271;28;88163;-91
2023/08/11 08:33:48;;;;;;;13.40;4.35;;;24.00;59.50;;;;;;4902396;28;87449;-89
2023/08/11 08:36:14;;;;;;;10.32;4.30;;;24.00;59.60;;;;;;4902269;28;86276;-87
2023/08/11 08:38:39;;;;;;;10.45;3.83;;;24.00;59.60;;;;;;4904415;28;87695;-84
2023/08/11 08:41:09;;;;;;;8.93;3.40;;;23.90;59.70;;;;;;4900252;28;87851;-85
2023/08/11 08:43:34;;;;;;;;;;;24.00;59.70;;;;;;4899526;28;88274;-86
2023/08/11 08:46:03;;;;;;;13.45;4.22;;;24.00;59.70;;;;;;4899957;28;88295;-86
2023/08/11 08:48:52;;;;;;;11.30;3.90;;;24.00;59.70;;;;;;4898149;28;88083;-85
2023/08/11 08:51:19;;;;;;;6.85;3.55;;;24.00;59.80;;;;;;4887862;28;89011;-91
2023/08/11 08:53:44;;;;;;;7.30;3.13;;;24.00;59.80;;;;;;4897670;28;87041;-93
2023/08/11 08:56:10;;;;;;;6.22;3.10;;;24.00;59.90;;;;;;4899403;28;88056;-92
2023/08/11 08:58:36;;;;;;;6.82;3.15;;;24.00;59.60;;;;;;4898318;28;87942;-88
2023/08/11 09:01:02;;;;;;;5.28;3.17;;;24.00;59.70;;;;;;4894430;28;90422;-87
2023/08/11 09:03:30;;;;;;;9.35;3.22;;;24.00;59.50;;;;;;4893076;28;87743;-87
2023/08/11 09:05:59;;;;;;;6.57;3.03;;;24.00;59.50;;;;;;4896732;28;87016;-87
2023/08/11 09:08:25;;;;;;;5.15;2.85;;;24.00;59.90;;;;;;4896725;28;88691;-82
2023/08/11 09:10:51;;;;;;;5.78;3.05;;;24.00;59.80;;;;;;4894426;28;89388;-85
2023/08/11 09:13:16;;;;;;;4.35;2.38;;;24.00;59.90;;;;;;4895007;28;87049;-84
2023/08/11 09:15:43;;;;;;;3.40;2.45;;;24.00;60.20;;;;;;4892966;28;88247;-85
2023/08/11 09:18:15;;;;;;;5.40;3.15;;;24.00;59.90;;;;;;4894617;28;87926;-86
2023/08/11 09:20:41;;;;;;;9.30;2.88;;;24.00;60.10;;;;;;4899417;28;87757;-90
2023/08/11 09:23:07;;;;;;;10.07;3.17;;;24.00;60.60;;;;;;4895810;28;88156;-88
2023/08/11 09:25:33;;;;;;;5.88;2.90;;;24.00;60.80;;;;;;4897307;28;87386;-90
2023/08/11 09:27:59;;;;;;;8.90;3.30;;;24.10;61.10;;;;;;4896527;28;88676;-89
2023/08/11 09:30:32;;;;;;;7.88;3.13;;;24.00;60.90;;;;;;4900769;28;88748;-94
2023/08/11 09:33:01;;;;;;;10.57;2.88;;;24.10;61.30;;;;;;4897256;28;88459;-83
2023/08/11 09:35:27;;;;;;;;;;;24.10;61.00;;;;;;4899745;28;87542;-90
2023/08/11 09:37:54;;;;;;;6.35;3.10;;;24.10;60.80;;;;;;4906942;28;89243;-87
2023/08/11 09:40:24;;;;;;;6.97;2.65;;;24.20;60.90;;;;;;4907996;28;88399;-88
2023/08/11 09:42:53;;;;;;;4.82;2.63;;;24.20;61.50;;;;;;4898616;28;87406;-86
2023/08/11 09:45:18;;;;;;;7.28;2.85;;;24.30;61.70;;;;;;4902898;28;87326;-90
2023/08/11 09:47:44;;;;;;;8.20;3.50;;;24.40;61.60;;;;;;4903356;28;87698;-84
2023/08/11 09:50:10;;;;;;;6.22;2.88;;;24.50;61.50;;;;;;4902780;28;86463;-87
2023/08/11 09:52:37;;;;;;;5.03;2.95;;;24.50;61.60;;;;;;4900086;28;87918;-83
2023/08/11 09:55:06;;;;;;;7.53;3.00;;;24.50;62.40;;;;;;4898165;28;94201;-83
2023/08/11 09:57:34;;;;;;;6.38;3.88;;;24.60;61.40;;;;;;4898079;28;88070;-89
2023/08/11 10:00:00;;;;;;;6.50;3.33;;;24.50;61.80;;;;;;4896300;28;88168;-83
2023/08/11 10:02:30;;;;;;;11.75;3.50;;;24.50;62.40;;;;;;4899125;28;87637;-84
2023/08/11 10:05:07;;;;;;;6.78;3.40;;;24.40;62.10;;;;;;4898988;28;87888;-82
2023/08/11 10:07:39;;;;;;;8.05;3.45;;;24.30;62.60;;;;;;4901825;28;93304;-86
2023/08/11 10:10:11;;;;;;;8.18;4.03;;;24.30;63.00;;;;;;4900871;28;88586;-83
2023/08/11 10:12:40;;;;;;;8.30;3.60;;;24.30;62.90;;;;;;4901428;28;87344;-88
2023/08/11 10:15:08;;;;;;;8.98;3.83;;;24.30;63.50;;;;;;4898679;28;87312;-83
2023/08/11 10:17:35;;;;;;;7.13;3.78;;;24.30;63.40;;;;;;4894779;28;87721;-84
2023/08/11 10:20:04;;;;;;;6.65;3.65;;;24.30;63.20;;;;;;4897261;28;89189;-85
2023/08/11 10:22:32;;;;;;;8.57;3.80;;;24.30;63.50;;;;;;4901742;28;88605;-83
2023/08/11 10:24:58;;;;;;;8.00;3.80;;;24.40;63.60;;;;;;4893278;28;94048;-84
2023/08/11 10:27:25;;;;;;;6.93;3.20;;;24.50;63.30;;;;;;4891903;28;87735;-83
2023/08/11 10:29:51;;;;;;;8.80;4.03;;;24.60;63.00;;;;;;4892228;28;87882;-86
2023/08/11 10:32:17;;;;;;;7.43;3.83;;;24.60;62.80;;;;;;4895679;28;86831;-87
2023/08/11 10:34:43;;;;;;;5.72;3.10;;;24.70;62.90;;;;;;4899666;28;88139;-87
2023/08/11 10:37:08;;;;;;;8.30;3.67;;;24.70;63.00;;;;;;4895173;28;88271;-89
2023/08/11 10:39:37;;;;;;;7.00;3.90;;;24.70;63.00;;;;;;4904491;28;87766;-88
2023/08/11 10:42:03;;;;;;;7.90;4.03;;;24.70;62.70;;;;;;4901756;28;87100;-84
2023/08/11 10:44:30;;;;;;;6.50;3.67;;;24.70;63.90;;;;;;4898284;28;87491;-91
2023/08/11 10:47:02;;;;;;;7.07;3.78;;;24.70;63.70;;;;;;4902133;28;88539;-90
2023/08/11 10:49:33;;;;;;;7.38;4.03;;;24.80;64.40;;;;;;4907554;28;91662;-87
2023/08/11 10:52:01;;;;;;;7.32;3.90;;;24.70;64.50;;;;;;4901085;28;87245;-87
2023/08/11 10:54:27;;;;;;;6.95;4.00;;;24.70;64.90;;;;;;4900759;28;87710;-89
2023/08/11 10:56:53;;;;;;;9.65;4.00;;;24.60;64.60;;;;;;4899184;28;90684;-88
2023/08/11 10:59:30;;;;;;;7.97;4.07;;;24.60;64.90;;;;;;4905229;28;87867;-90
2023/08/11 11:02:03;;;;;;;7.63;3.83;;;24.70;64.90;;;;;;4904317;28;87774;-85
2023/08/11 11:04:31;;;;;;;8.02;4.07;;;24.80;65.20;;;;;;4916960;28;87533;-81
2023/08/11 11:06:58;;;;;;;5.70;3.72;;;24.80;64.80;;;;;;4915518;28;88660;-83
2023/08/11 11:09:27;;;;;;;7.78;3.70;;;24.90;64.60;;;;;;4916898;28;88423;-83
2023/08/11 11:11:56;;;;;;;6.07;3.85;;;24.90;64.50;;;;;;4916482;28;88156;-82
2023/08/11 11:14:29;;;;;;;7.57;3.95;;;24.90;64.10;;;;;;4924041;28;87879;-82
2023/08/11 11:16:58;;;;;;;6.05;4.22;;;24.90;63.90;;;;;;4933863;28;87380;-83
2023/08/11 11:19:26;;;;;;;5.80;3.60;;;24.90;64.00;;;;;;4929822;28;86785;-83
2023/08/11 11:21:54;;;;;;;5.38;3.75;;;24.90;64.00;;;;;;4932448;28;86584;-81
2023/08/11 11:24:22;;;;;;;5.40;3.35;;;24.90;63.90;;;;;;4934083;28;86234;-82
2023/08/11 11:26:49;;;;;;;5.93;3.85;;;24.90;64.00;;;;;;4934458;28;89543;-84
2023/08/11 11:29:23;;;;;;;7.18;3.80;;;24.90;63.90;;;;;;4932193;28;87476;-82
2023/08/11 11:31:50;;;;;;;7.15;3.83;;;24.90;63.60;;;;;;4931352;28;86842;-81
2023/08/11 11:34:18;;;;;;;7.57;3.85;;;24.90;63.60;;;;;;4921887;28;88088;-82
2023/08/11 11:36:50;;;;;;;7.00;3.88;;;24.80;63.70;;;;;;4929845;28;87418;-81
2023/08/11 11:39:18;;;;;;;6.05;3.60;;;24.80;63.50;;;;;;4924490;28;88795;-81
2023/08/11 11:42:06;;;;;;;5.47;3.40;;;24.80;63.70;;;;;;4930243;28;86665;-81
2023/08/11 11:44:39;;;;;;;6.10;3.57;;;24.70;63.70;;;;;;4932528;28;89636;-82
2023/08/11 11:47:16;;;;;;;8.07;4.32;;;24.70;63.60;;;;;;4934900;28;88982;-82
2023/08/11 11:50:08;;;;;;;7.55;3.80;;;24.70;63.70;;;;;;4933475;28;87790;-83
2023/08/11 11:53:06;;;;;;;5.70;3.05;;;24.80;63.50;;;;;;4936713;28;86910;-82
2023/08/11 11:56:07;;;;;;;4.75;3.33;;;24.80;63.20;;;;;;4929676;28;87944;-82
2023/08/11 11:58:52;;;;;;;4.75;3.28;;;24.90;63.30;;;;;;4933046;28;87161;-82
2023/08/11 12:01:27;;;;;;;5.47;3.80;;;24.90;63.10;;;;;;4921684;28;87893;-89
2023/08/11 12:03:55;;;;;;;9.18;3.58;;;24.80;63.40;;;;;;4913811;28;87980;-83
2023/08/11 12:06:33;;;;;;;5.68;3.45;;;24.90;63.30;;;;;;4928790;28;86766;-83
2023/08/11 12:09:22;;;;;;;4.38;3.15;;;24.80;63.70;;;;;;4936433;28;88024;-82
2023/08/11 12:11:55;;;;;;;5.60;3.22;;;24.80;63.70;;;;;;4932225;28;91982;-82
2023/08/11 12:14:53;;;;;;;5.38;3.47;;;24.80;63.80;;;;;;4934607;28;86428;-87
2023/08/11 12:17:54;;;;;;;7.03;3.47;;;24.80;63.50;;;;;;4918904;28;87004;-82
2023/08/11 12:20:26;;;;;;;8.63;3.67;;;24.70;63.80;;;;;;4929265;28;87751;-83
2023/08/11 12:22:54;;;;;;;7.15;3.22;;;24.70;64.00;;;;;;4936206;28;87415;-83
2023/08/11 12:25:23;;;;;;;10.13;3.88;;;24.70;63.70;;;;;;4933486;28;87245;-82
2023/08/11 12:28:22;;;;;;;5.93;3.40;;;24.70;63.70;;;;;;4931450;28;86611;-86
2023/08/11 12:31:03;;;;;;;5.82;3.75;;;24.70;63.80;;;;;;4933573;28;87608;-83
2023/08/11 12:33:33;;;;;;;4.30;3.40;;;24.60;63.90;;;;;;4931348;28;87645;-83
2023/08/11 12:36:17;;;;;;;5.22;3.13;;;24.60;64.10;;;;;;4930788;28;87085;-87
2023/08/11 12:38:49;;;;;;;6.72;3.83;;;24.60;64.00;;;;;;4928545;28;89989;-91
2023/08/11 12:41:32;;;;;;;5.85;3.45;;;24.50;64.10;;;;;;4924764;28;86853;-85
2023/08/11 12:44:01;;;;;;;3.88;2.90;;;24.50;65.20;;;;;;4927162;28;87208;-88
2023/08/11 12:46:43;;;;;;;;;;;24.50;64.30;;;;;;4928554;28;86697;-85
2023/08/11 12:49:16;;;;;;;4.65;3.47;;;24.50;64.20;;;;;;4928840;28;86521;-85
2023/08/11 12:51:59;;;;;;;4.82;3.38;;;24.50;64.30;;;;;;4930261;28;87490;-90